createdAt,value
2022-12-01T17:14:59.175Z,84.23
2022-12-01T17:17:30.228Z,115.07
2022-12-01T17:19:59.364Z,108.85
2022-12-01T17:22:28.556Z,108.05
2022-12-01T17:24:57.449Z,103.68
2022-12-01T17:27:28.514Z,89.90
2022-12-01T17:29:59.553Z,93.47
2022-12-01T17:32:28.714Z,82.72
2022-12-01T17:34:56.975Z,88.45
2022-12-01T17:37:28.184Z,82.00
2022-12-01T17:39:56.696Z,83.93
2022-12-01T17:42:25.410Z,84.18
2022-12-01T17:44:54.575Z,82.60
2022-12-01T17:47:25.020Z,74.35
2022-12-01T17:49:54.088Z,80.13
2022-12-01T17:52:28.019Z,76.57
2022-12-01T17:54:57.169Z,74.30
2022-12-01T17:57:25.570Z,71.30
2022-12-01T17:59:54.615Z,73.47
2022-12-01T18:02:23.054Z,69.72
2022-12-01T18:04:51.938Z,67.88
2022-12-01T18:07:20.985Z,67.72
2022-12-01T18:09:49.983Z,74.32
2022-12-01T18:12:18.648Z,75.47
2022-12-01T18:14:47.771Z,72.93
2022-12-01T18:17:16.534Z,80.75
2022-12-01T18:19:45.181Z,73.15
2022-12-01T18:22:14.194Z,70.47
2022-12-01T18:24:43.830Z,71.38
2022-12-01T18:27:13.211Z,73.53
2022-12-01T18:29:45.360Z,70.82
2022-12-01T18:32:13.687Z,62.60
2022-12-01T18:34:45.373Z,71.90
2022-12-01T18:37:14.849Z,68.03
2022-12-01T18:39:43.371Z,71.63
2022-12-01T18:42:11.814Z,73.63
2022-12-01T18:44:46.820Z,69.55
2022-12-01T18:47:15.443Z,75.78
2022-12-01T18:49:50.814Z,68.07
2022-12-01T18:52:21.956Z,73.55
2022-12-01T18:54:51.262Z,69.15
2022-12-01T18:57:20.956Z,75.90
2022-12-01T18:59:49.665Z,71.28
2022-12-01T19:02:17.735Z,73.00
2022-12-01T19:04:51.902Z,74.88
2022-12-01T19:07:29.354Z,76.90
2022-12-01T19:09:58.451Z,79.68
2022-12-01T19:12:26.843Z,77.88
2022-12-01T19:38:03.339Z,100.75
2022-12-01T19:40:32.610Z,102.70
2022-12-01T19:43:03.680Z,108.03
2022-12-01T19:45:38.565Z,94.57
2022-12-01T19:48:15.381Z,100.65
2022-12-01T19:50:46.773Z,93.20
2022-12-01T19:53:23.642Z,88.35
2022-12-01T19:55:55.201Z,85.13
2022-12-01T19:58:26.925Z,88.05
2022-12-01T20:00:56.228Z,86.25
2022-12-01T20:03:26.220Z,80.60
2022-12-01T20:05:54.530Z,84.50
2022-12-01T20:08:25.950Z,81.25
2022-12-01T20:10:55.037Z,81.60
2022-12-01T20:13:23.742Z,76.80
2022-12-01T20:15:52.726Z,81.82
2022-12-01T20:18:22.568Z,71.75
2022-12-01T20:20:51.721Z,75.78
2022-12-01T20:23:20.956Z,79.90
2022-12-01T20:25:50.055Z,81.35
2022-12-01T20:28:18.734Z,79.57
2022-12-01T20:30:47.804Z,76.00
2022-12-01T20:33:17.666Z,71.05
2022-12-01T20:35:46.795Z,74.18
2022-12-01T20:38:15.516Z,77.57
2022-12-01T20:40:44.361Z,72.90
2022-12-01T20:43:13.472Z,69.95
2022-12-01T20:45:42.196Z,76.43
2022-12-01T20:48:11.180Z,74.07
2022-12-01T20:50:39.640Z,79.03
2022-12-01T20:53:08.640Z,73.95
2022-12-01T20:55:38.424Z,75.55
2022-12-01T20:58:14.803Z,73.60
2022-12-01T21:00:47.533Z,73.32
2022-12-01T21:03:16.086Z,68.25
2022-12-01T21:05:45.376Z,65.60
2022-12-01T21:08:15.135Z,60.72
2022-12-01T21:10:45.904Z,66.80
2022-12-01T21:13:40.491Z,65.25
2022-12-01T21:16:17.686Z,69.70
2022-12-01T21:18:53.991Z,66.50
2022-12-01T21:21:29.266Z,68.53
2022-12-01T21:24:06.789Z,72.25
2022-12-01T21:26:41.375Z,73.28
2022-12-01T21:29:28.080Z,66.63
2022-12-01T21:32:01.091Z,66.97
2022-12-01T21:34:36.143Z,67.45
2022-12-01T21:37:12.841Z,68.95
2022-12-01T21:39:43.316Z,67.30
2022-12-01T21:42:20.166Z,69.32
2022-12-01T21:44:50.201Z,68.80
2022-12-01T21:47:23.462Z,60.00
2022-12-01T21:49:53.972Z,61.47
2022-12-01T21:52:28.396Z,66.88
2022-12-01T21:55:03.478Z,65.57
2022-12-01T21:57:47.890Z,66.70
2022-12-01T22:00:29.639Z,68.82
2022-12-01T22:03:24.722Z,66.70
2022-12-01T22:06:28.186Z,68.47
2022-12-01T22:08:58.800Z,66.63
2022-12-01T22:11:31.185Z,74.53
2022-12-01T22:14:09.104Z,64.10
2022-12-01T22:16:43.380Z,66.18
2022-12-01T22:19:39.269Z,63.53
2022-12-01T22:22:24.565Z,53.92
2022-12-01T22:25:00.506Z,62.92
2022-12-01T22:27:31.897Z,62.53
2022-12-01T22:30:07.186Z,58.40
2022-12-01T22:32:44.706Z,62.28
2022-12-01T22:35:46.415Z,57.83
2022-12-01T22:38:32.291Z,55.38
2022-12-01T22:41:12.715Z,55.42
2022-12-01T22:43:51.772Z,52.13
2022-12-01T22:46:27.064Z,50.08
2022-12-01T22:49:04.173Z,46.38
2022-12-01T22:52:03.240Z,48.47
2022-12-01T22:54:50.133Z,56.00
2022-12-01T22:57:25.193Z,54.20
2022-12-01T22:59:54.374Z,52.13
2022-12-01T23:02:33.922Z,61.78
2022-12-01T23:05:15.254Z,58.38
2022-12-01T23:07:44.401Z,60.25
2022-12-01T23:10:24.565Z,65.28
2022-12-01T23:12:55.626Z,66.90
2022-12-01T23:15:38.854Z,66.93
2022-12-01T23:18:16.620Z,64.93
2022-12-01T23:20:48.510Z,65.72
2022-12-01T23:23:26.474Z,66.95
2022-12-01T23:25:55.299Z,61.67
2022-12-01T23:28:25.057Z,54.30
2022-12-01T23:30:57.833Z,58.13
2022-12-01T23:33:29.750Z,59.20
2022-12-01T23:36:19.638Z,63.72
2022-12-01T23:38:51.464Z,56.88
2022-12-01T23:41:27.467Z,63.47
2022-12-01T23:43:59.278Z,59.05
2022-12-01T23:46:29.704Z,55.50
2022-12-01T23:49:02.634Z,54.88
2022-12-01T23:51:33.858Z,58.50
2022-12-01T23:54:22.470Z,63.17
2022-12-01T23:57:01.355Z,60.10
2022-12-01T23:59:32.220Z,59.00
